sensor_id;sensor_type;location;lat;lon;timestamp;pressure;altitude;pressure_sealevel;temperature;humidity
38880;BME280;25887;30.194;-97.880;2023-04-27T00:00:31;97482.34;;;29.86;52.41
38880;BME280;25887;30.194;-97.880;2023-04-27T00:02:57;97459.78;;;29.82;52.78
38880;BME280;25887;30.194;-97.880;2023-04-27T00:05:23;97461.03;;;29.78;52.84
38880;BME280;25887;30.194;-97.880;2023-04-27T00:07:49;97468.97;;;29.78;52.94
38880;BME280;25887;30.194;-97.880;2023-04-27T00:10:16;97476.25;;;29.76;52.91
38880;BME280;25887;30.194;-97.880;2023-04-27T00:12:42;97477.38;;;29.73;52.99
38880;BME280;25887;30.194;-97.880;2023-04-27T00:15:08;97478.47;;;29.71;52.92
38880;BME280;25887;30.194;-97.880;2023-04-27T00:17:35;97490.19;;;29.68;52.93
38880;BME280;25887;30.194;-97.880;2023-04-27T00:20:03;97486.84;;;29.66;52.94
38880;BME280;25887;30.194;-97.880;2023-04-27T00:22:30;97467.47;;;29.65;53.04
38880;BME280;25887;30.194;-97.880;2023-04-27T00:24:56;97472.91;;;29.64;53.23
38880;BME280;25887;30.194;-97.880;2023-04-27T00:27:23;97491.56;;;29.62;53.07
38880;BME280;25887;30.194;-97.880;2023-04-27T00:29:49;97492.69;;;29.60;53.24
38880;BME280;25887;30.194;-97.880;2023-04-27T00:32:15;97484.91;;;29.58;52.96
38880;BME280;25887;30.194;-97.880;2023-04-27T00:34:41;97480.84;;;29.54;53.32
38880;BME280;25887;30.194;-97.880;2023-04-27T00:37:07;97504.81;;;29.53;53.23
38880;BME280;25887;30.194;-97.880;2023-04-27T00:39:34;97516.53;;;29.50;53.08
38880;BME280;25887;30.194;-97.880;2023-04-27T00:42:03;97508.00;;;29.47;53.43
38880;BME280;25887;30.194;-97.880;2023-04-27T00:44:30;97514.41;;;29.44;53.52
38880;BME280;25887;30.194;-97.880;2023-04-27T00:46:57;97509.66;;;29.38;53.59
38880;BME280;25887;30.194;-97.880;2023-04-27T00:49:25;97489.03;;;29.32;54.01
38880;BME280;25887;30.194;-97.880;2023-04-27T00:51:54;97485.44;;;29.23;54.16
38880;BME280;25887;30.194;-97.880;2023-04-27T00:54:21;97528.59;;;29.14;54.43
38880;BME280;25887;30.194;-97.880;2023-04-27T00:56:49;97540.53;;;29.08;54.49
38880;BME280;25887;30.194;-97.880;2023-04-27T00:59:17;97510.31;;;29.01;54.74
38880;BME280;25887;30.194;-97.880;2023-04-27T01:01:44;97499.31;;;28.96;54.77
38880;BME280;25887;30.194;-97.880;2023-04-27T01:04:11;97496.25;;;28.91;55.11
38880;BME280;25887;30.194;-97.880;2023-04-27T01:06:37;97508.03;;;28.87;55.37
38880;BME280;25887;30.194;-97.880;2023-04-27T01:09:05;97507.75;;;28.80;55.33
38880;BME280;25887;30.194;-97.880;2023-04-27T01:11:32;97509.94;;;28.75;55.39
38880;BME280;25887;30.194;-97.880;2023-04-27T01:14:02;97507.84;;;28.69;56.25
38880;BME280;25887;30.194;-97.880;2023-04-27T01:16:30;97510.06;;;28.64;55.92
38880;BME280;25887;30.194;-97.880;2023-04-27T01:18:57;97514.91;;;28.59;56.00
38880;BME280;25887;30.194;-97.880;2023-04-27T01:21:24;97519.75;;;28.54;56.41
38880;BME280;25887;30.194;-97.880;2023-04-27T01:23:52;97519.34;;;28.49;56.65
38880;BME280;25887;30.194;-97.880;2023-04-27T01:26:19;97533.06;;;28.43;56.56
38880;BME280;25887;30.194;-97.880;2023-04-27T01:28:45;97543.88;;;28.40;56.55
38880;BME280;25887;30.194;-97.880;2023-04-27T01:31:11;97554.72;;;28.37;56.65
38880;BME280;25887;30.194;-97.880;2023-04-27T01:33:39;97548.00;;;28.33;57.10
38880;BME280;25887;30.194;-97.880;2023-04-27T01:36:06;97564.97;;;28.30;57.13
38880;BME280;25887;30.194;-97.880;2023-04-27T01:38:33;97588.03;;;28.28;57.57
38880;BME280;25887;30.194;-97.880;2023-04-27T01:41:02;97587.44;;;28.24;57.59
38880;BME280;25887;30.194;-97.880;2023-04-27T01:43:29;97613.13;;;28.22;57.80
38880;BME280;25887;30.194;-97.880;2023-04-27T01:46:08;97629.97;;;28.21;57.58
38880;BME280;25887;30.194;-97.880;2023-04-27T01:48:35;97630.22;;;28.18;57.77
38880;BME280;25887;30.194;-97.880;2023-04-27T01:51:02;97649.69;;;28.17;57.50
38880;BME280;25887;30.194;-97.880;2023-04-27T01:53:29;97656.88;;;28.15;57.84
38880;BME280;25887;30.194;-97.880;2023-04-27T01:55:57;97651.88;;;28.12;58.02
38880;BME280;25887;30.194;-97.880;2023-04-27T01:58:26;97665.19;;;28.11;57.99
38880;BME280;25887;30.194;-97.880;2023-04-27T02:00:53;97662.94;;;28.06;58.43
38880;BME280;25887;30.194;-97.880;2023-04-27T02:03:19;97658.63;;;28.05;58.21
38880;BME280;25887;30.194;-97.880;2023-04-27T02:05:45;97654.53;;;28.01;58.29
38880;BME280;25887;30.194;-97.880;2023-04-27T02:08:12;97651.19;;;27.99;58.34
38880;BME280;25887;30.194;-97.880;2023-04-27T02:10:38;97656.75;;;27.96;58.62
38880;BME280;25887;30.194;-97.880;2023-04-27T02:13:05;97659.50;;;27.94;58.86
38880;BME280;25887;30.194;-97.880;2023-04-27T02:15:31;97663.22;;;27.92;58.53
38880;BME280;25887;30.194;-97.880;2023-04-27T02:17:57;97647.78;;;27.87;58.73
38880;BME280;25887;30.194;-97.880;2023-04-27T02:20:23;97634.94;;;27.83;58.72
38880;BME280;25887;30.194;-97.880;2023-04-27T02:22:51;97629.19;;;27.77;58.79
38880;BME280;25887;30.194;-97.880;2023-04-27T02:25:18;97629.59;;;27.73;59.11
38880;BME280;25887;30.194;-97.880;2023-04-27T02:27:44;97620.34;;;27.67;58.95
38880;BME280;25887;30.194;-97.880;2023-04-27T02:30:11;97617.22;;;27.62;58.92
38880;BME280;25887;30.194;-97.880;2023-04-27T02:32:37;97616.78;;;27.57;59.34
38880;BME280;25887;30.194;-97.880;2023-04-27T02:35:04;97612.47;;;27.56;58.99
38880;BME280;25887;30.194;-97.880;2023-04-27T02:37:31;97611.84;;;27.53;59.38
38880;BME280;25887;30.194;-97.880;2023-04-27T02:39:57;97613.78;;;27.51;59.31
38880;BME280;25887;30.194;-97.880;2023-04-27T02:42:24;97609.59;;;27.48;59.27
38880;BME280;25887;30.194;-97.880;2023-04-27T02:44:50;97618.72;;;27.44;59.40
38880;BME280;25887;30.194;-97.880;2023-04-27T02:47:17;97616.47;;;27.39;59.42
38880;BME280;25887;30.194;-97.880;2023-04-27T02:49:43;97625.44;;;27.37;59.57
38880;BME280;25887;30.194;-97.880;2023-04-27T02:52:09;97634.59;;;27.33;59.26
38880;BME280;25887;30.194;-97.880;2023-04-27T02:54:35;97642.84;;;27.28;59.69
38880;BME280;25887;30.194;-97.880;2023-04-27T02:57:02;97644.91;;;27.25;59.31
38880;BME280;25887;30.194;-97.880;2023-04-27T02:59:28;97642.63;;;27.20;59.73
38880;BME280;25887;30.194;-97.880;2023-04-27T03:01:54;97642.88;;;27.17;59.58
38880;BME280;25887;30.194;-97.880;2023-04-27T03:04:20;97641.44;;;27.13;59.71
38880;BME280;25887;30.194;-97.880;2023-04-27T03:06:47;97648.63;;;27.11;60.03
38880;BME280;25887;30.194;-97.880;2023-04-27T03:09:13;97655.22;;;27.05;59.70
38880;BME280;25887;30.194;-97.880;2023-04-27T03:11:39;97667.56;;;27.05;59.79
38880;BME280;25887;30.194;-97.880;2023-04-27T03:14:05;97664.19;;;27.03;60.33
38880;BME280;25887;30.194;-97.880;2023-04-27T03:16:32;97666.19;;;26.99;60.07
38880;BME280;25887;30.194;-97.880;2023-04-27T03:18:59;97675.06;;;26.98;60.26
38880;BME280;25887;30.194;-97.880;2023-04-27T03:21:25;97663.81;;;26.96;60.50
38880;BME280;25887;30.194;-97.880;2023-04-27T03:23:52;97664.91;;;26.93;59.94
38880;BME280;25887;30.194;-97.880;2023-04-27T03:26:18;97675.53;;;26.92;60.19
38880;BME280;25887;30.194;-97.880;2023-04-27T03:28:45;97673.03;;;26.90;60.53
38880;BME280;25887;30.194;-97.880;2023-04-27T03:31:13;97663.56;;;26.88;60.46
38880;BME280;25887;30.194;-97.880;2023-04-27T03:33:40;97658.44;;;26.86;60.64
38880;BME280;25887;30.194;-97.880;2023-04-27T03:36:07;97653.38;;;26.83;60.82
38880;BME280;25887;30.194;-97.880;2023-04-27T03:38:34;97650.16;;;26.80;60.54
38880;BME280;25887;30.194;-97.880;2023-04-27T03:41:00;97654.72;;;26.78;60.68
38880;BME280;25887;30.194;-97.880;2023-04-27T03:43:27;97652.28;;;26.75;60.62
38880;BME280;25887;30.194;-97.880;2023-04-27T03:45:54;97651.72;;;26.71;60.94
38880;BME280;25887;30.194;-97.880;2023-04-27T03:48:20;97660.56;;;26.70;60.96
38880;BME280;25887;30.194;-97.880;2023-04-27T03:50:47;97665.94;;;26.69;61.30
38880;BME280;25887;30.194;-97.880;2023-04-27T03:53:14;97684.75;;;26.64;61.28
38880;BME280;25887;30.194;-97.880;2023-04-27T03:55:42;97692.78;;;26.62;60.99
38880;BME280;25887;30.194;-97.880;2023-04-27T03:58:09;97708.81;;;26.59;61.28
38880;BME280;25887;30.194;-97.880;2023-04-27T04:00:36;97716.00;;;26.57;60.97
38880;BME280;25887;30.194;-97.880;2023-04-27T04:03:04;97729.28;;;26.56;60.92
38880;BME280;25887;30.194;-97.880;2023-04-27T04:05:31;97728.66;;;26.52;61.30
38880;BME280;25887;30.194;-97.880;2023-04-27T04:07:57;97738.38;;;26.52;61.40
38880;BME280;25887;30.194;-97.880;2023-04-27T04:10:24;97746.28;;;26.52;61.21
38880;BME280;25887;30.194;-97.880;2023-04-27T04:12:52;97746.16;;;26.53;61.62
38880;BME280;25887;30.194;-97.880;2023-04-27T04:15:18;97746.16;;;26.53;61.57
38880;BME280;25887;30.194;-97.880;2023-04-27T04:17:46;97750.38;;;26.56;61.41
38880;BME280;25887;30.194;-97.880;2023-04-27T04:20:13;97748.56;;;26.56;61.84
38880;BME280;25887;30.194;-97.880;2023-04-27T04:22:40;97756.34;;;26.58;61.49
38880;BME280;25887;30.194;-97.880;2023-04-27T04:25:08;97758.16;;;26.57;61.64
38880;BME280;25887;30.194;-97.880;2023-04-27T04:27:34;97776.59;;;26.57;61.75
38880;BME280;25887;30.194;-97.880;2023-04-27T04:30:01;97799.34;;;26.58;61.62
38880;BME280;25887;30.194;-97.880;2023-04-27T04:32:30;97821.38;;;26.57;61.36
38880;BME280;25887;30.194;-97.880;2023-04-27T04:34:58;97841.75;;;26.55;61.51
38880;BME280;25887;30.194;-97.880;2023-04-27T04:37:26;97865.78;;;26.51;61.48
38880;BME280;25887;30.194;-97.880;2023-04-27T04:39:53;97877.41;;;26.35;60.85
38880;BME280;25887;30.194;-97.880;2023-04-27T04:42:20;97881.25;;;26.19;59.96
38880;BME280;25887;30.194;-97.880;2023-04-27T04:44:47;97890.78;;;25.96;59.43
38880;BME280;25887;30.194;-97.880;2023-04-27T04:47:14;97893.03;;;25.76;59.22
38880;BME280;25887;30.194;-97.880;2023-04-27T04:49:40;97896.03;;;25.58;58.79
38880;BME280;25887;30.194;-97.880;2023-04-27T04:52:06;97904.78;;;25.45;58.77
38880;BME280;25887;30.194;-97.880;2023-04-27T04:54:32;97918.53;;;25.36;58.81
38880;BME280;25887;30.194;-97.880;2023-04-27T04:56:58;97939.03;;;25.31;58.67
38880;BME280;25887;30.194;-97.880;2023-04-27T04:59:26;97929.66;;;25.27;58.62
38880;BME280;25887;30.194;-97.880;2023-04-27T05:01:53;97919.47;;;25.22;58.50
38880;BME280;25887;30.194;-97.880;2023-04-27T05:04:20;97907.97;;;25.11;58.33
38880;BME280;25887;30.194;-97.880;2023-04-27T05:06:48;97921.63;;;25.03;58.16
38880;BME280;25887;30.194;-97.880;2023-04-27T05:09:14;97964.13;;;24.95;58.05
38880;BME280;25887;30.194;-97.880;2023-04-27T05:11:40;98019.19;;;24.84;57.85
38880;BME280;25887;30.194;-97.880;2023-04-27T05:14:06;98023.41;;;24.72;58.02
38880;BME280;25887;30.194;-97.880;2023-04-27T05:16:32;98034.88;;;24.57;57.91
38880;BME280;25887;30.194;-97.880;2023-04-27T05:18:59;98067.34;;;24.42;58.28
38880;BME280;25887;30.194;-97.880;2023-04-27T05:21:25;98071.16;;;24.22;58.45
38880;BME280;25887;30.194;-97.880;2023-04-27T05:23:51;98063.63;;;24.02;58.60
38880;BME280;25887;30.194;-97.880;2023-04-27T05:29:39;98027.47;;;23.62;58.76
38880;BME280;25887;30.194;-97.880;2023-04-27T05:32:35;97991.38;;;23.52;58.46
38880;BME280;25887;30.194;-97.880;2023-04-27T05:35:29;97983.25;;;23.41;59.05
38880;BME280;25887;30.194;-97.880;2023-04-27T05:37:56;97974.25;;;23.30;59.08
38880;BME280;25887;30.194;-97.880;2023-04-27T05:40:23;97959.91;;;23.22;58.96
38880;BME280;25887;30.194;-97.880;2023-04-27T05:42:50;97961.84;;;23.18;58.99
38880;BME280;25887;30.194;-97.880;2023-04-27T05:45:16;97927.31;;;23.12;58.98
38880;BME280;25887;30.194;-97.880;2023-04-27T05:47:42;97925.03;;;23.05;59.26
38880;BME280;25887;30.194;-97.880;2023-04-27T05:50:09;97946.53;;;22.96;58.97
38880;BME280;25887;30.194;-97.880;2023-04-27T05:52:35;97946.19;;;22.87;59.44
38880;BME280;25887;30.194;-97.880;2023-04-27T05:55:30;97932.66;;;22.78;59.46
38880;BME280;25887;30.194;-97.880;2023-04-27T05:57:57;97929.22;;;22.62;59.61
38880;BME280;25887;30.194;-97.880;2023-04-27T06:00:24;97918.16;;;22.57;59.43
38880;BME280;25887;30.194;-97.880;2023-04-27T06:02:51;97917.56;;;22.52;59.75
38880;BME280;25887;30.194;-97.880;2023-04-27T06:05:17;97911.50;;;22.51;59.52
38880;BME280;25887;30.194;-97.880;2023-04-27T06:08:06;97901.13;;;22.50;59.60
38880;BME280;25887;30.194;-97.880;2023-04-27T06:11:15;97898.75;;;22.45;59.81
38880;BME280;25887;30.194;-97.880;2023-04-27T06:13:41;97926.28;;;22.37;59.78
38880;BME280;25887;30.194;-97.880;2023-04-27T06:16:07;97936.94;;;22.34;59.95
38880;BME280;25887;30.194;-97.880;2023-04-27T06:18:40;97941.28;;;22.33;60.29
38880;BME280;25887;30.194;-97.880;2023-04-27T06:21:06;97935.38;;;22.30;60.19
38880;BME280;25887;30.194;-97.880;2023-04-27T06:24:05;97883.69;;;22.33;59.88
38880;BME280;25887;30.194;-97.880;2023-04-27T06:26:31;97894.53;;;22.27;60.22
38880;BME280;25887;30.194;-97.880;2023-04-27T06:28:58;97930.47;;;22.23;60.10
38880;BME280;25887;30.194;-97.880;2023-04-27T06:31:27;97957.41;;;22.25;60.27
38880;BME280;25887;30.194;-97.880;2023-04-27T06:33:53;97936.56;;;22.24;60.21
38880;BME280;25887;30.194;-97.880;2023-04-27T06:36:19;97954.78;;;22.25;60.22
38880;BME280;25887;30.194;-97.880;2023-04-27T06:38:45;97967.88;;;22.25;60.13
38880;BME280;25887;30.194;-97.880;2023-04-27T06:41:11;98028.94;;;22.26;60.30
38880;BME280;25887;30.194;-97.880;2023-04-27T06:43:38;98052.53;;;22.24;60.55
38880;BME280;25887;30.194;-97.880;2023-04-27T06:46:04;98014.13;;;22.25;59.95
38880;BME280;25887;30.194;-97.880;2023-04-27T06:48:30;97990.75;;;22.22;60.31
38880;BME280;25887;30.194;-97.880;2023-04-27T06:50:56;97984.69;;;22.21;60.31
38880;BME280;25887;30.194;-97.880;2023-04-27T06:53:39;98016.84;;;22.23;60.63
38880;BME280;25887;30.194;-97.880;2023-04-27T06:56:09;98037.78;;;22.23;60.38
38880;BME280;25887;30.194;-97.880;2023-04-27T06:58:36;98028.16;;;22.24;60.34
38880;BME280;25887;30.194;-97.880;2023-04-27T07:01:03;98036.00;;;22.24;60.34
38880;BME280;25887;30.194;-97.880;2023-04-27T07:03:29;98024.78;;;22.22;60.60
38880;BME280;25887;30.194;-97.880;2023-04-27T07:05:56;98005.63;;;22.21;60.37
38880;BME280;25887;30.194;-97.880;2023-04-27T07:08:25;97971.81;;;22.17;60.35
38880;BME280;25887;30.194;-97.880;2023-04-27T07:10:52;97943.13;;;22.15;60.66
38880;BME280;25887;30.194;-97.880;2023-04-27T07:13:18;97935.47;;;22.12;60.42
38880;BME280;25887;30.194;-97.880;2023-04-27T07:15:44;97973.06;;;22.10;60.53
38880;BME280;25887;30.194;-97.880;2023-04-27T07:18:10;98031.63;;;22.07;60.84
38880;BME280;25887;30.194;-97.880;2023-04-27T07:20:37;98033.41;;;22.07;60.84
38880;BME280;25887;30.194;-97.880;2023-04-27T07:23:03;97997.00;;;22.02;60.95
38880;BME280;25887;30.194;-97.880;2023-04-27T07:25:29;98008.38;;;22.01;61.21
38880;BME280;25887;30.194;-97.880;2023-04-27T07:27:55;98001.25;;;22.05;60.81
38880;BME280;25887;30.194;-97.880;2023-04-27T07:30:24;97964.75;;;22.02;61.02
38880;BME280;25887;30.194;-97.880;2023-04-27T07:32:50;97948.06;;;22.04;61.20
38880;BME280;25887;30.194;-97.880;2023-04-27T07:35:19;97944.75;;;22.01;61.11
38880;BME280;25887;30.194;-97.880;2023-04-27T07:37:45;97947.63;;;21.96;61.20
38880;BME280;25887;30.194;-97.880;2023-04-27T07:40:12;97949.47;;;21.94;61.25
38880;BME280;25887;30.194;-97.880;2023-04-27T07:42:41;97930.50;;;21.90;61.50
38880;BME280;25887;30.194;-97.880;2023-04-27T07:45:11;97943.78;;;21.86;61.74
38880;BME280;25887;30.194;-97.880;2023-04-27T07:47:38;97937.28;;;21.77;61.41
38880;BME280;25887;30.194;-97.880;2023-04-27T07:50:08;97934.94;;;21.73;61.97
38880;BME280;25887;30.194;-97.880;2023-04-27T07:52:34;97946.44;;;21.68;62.28
38880;BME280;25887;30.194;-97.880;2023-04-27T07:55:02;97942.53;;;21.60;62.13
38880;BME280;25887;30.194;-97.880;2023-04-27T07:57:29;97931.47;;;21.55;62.29
38880;BME280;25887;30.194;-97.880;2023-04-27T07:59:56;97926.63;;;21.47;62.17
38880;BME280;25887;30.194;-97.880;2023-04-27T08:02:22;97940.97;;;21.40;62.40
38880;BME280;25887;30.194;-97.880;2023-04-27T08:04:49;97940.56;;;21.30;62.44
38880;BME280;25887;30.194;-97.880;2023-04-27T08:07:16;97953.06;;;21.24;62.40
38880;BME280;25887;30.194;-97.880;2023-04-27T08:09:42;97940.38;;;21.16;62.50
38880;BME280;25887;30.194;-97.880;2023-04-27T08:12:08;97927.56;;;21.11;62.50
38880;BME280;25887;30.194;-97.880;2023-04-27T08:14:35;97914.72;;;21.07;62.82
38880;BME280;25887;30.194;-97.880;2023-04-27T08:17:01;97926.25;;;21.03;62.90
38880;BME280;25887;30.194;-97.880;2023-04-27T08:19:27;97935.06;;;21.00;62.47
38880;BME280;25887;30.194;-97.880;2023-04-27T08:21:53;97956.88;;;20.99;62.73
38880;BME280;25887;30.194;-97.880;2023-04-27T08:24:22;97961.34;;;20.97;63.07
38880;BME280;25887;30.194;-97.880;2023-04-27T08:26:48;97971.94;;;20.94;62.75
38880;BME280;25887;30.194;-97.880;2023-04-27T08:29:14;97968.53;;;20.92;62.45
38880;BME280;25887;30.194;-97.880;2023-04-27T08:31:41;97953.72;;;20.93;62.99
38880;BME280;25887;30.194;-97.880;2023-04-27T08:34:07;97965.94;;;20.92;62.98
38880;BME280;25887;30.194;-97.880;2023-04-27T08:36:33;97948.72;;;20.88;62.89
38880;BME280;25887;30.194;-97.880;2023-04-27T08:38:59;97943.59;;;20.86;63.00
38880;BME280;25887;30.194;-97.880;2023-04-27T08:41:25;97941.91;;;20.85;63.12
38880;BME280;25887;30.194;-97.880;2023-04-27T08:43:52;97936.06;;;20.80;63.16
38880;BME280;25887;30.194;-97.880;2023-04-27T08:46:26;97929.06;;;20.81;63.16
38880;BME280;25887;30.194;-97.880;2023-04-27T08:48:53;97956.00;;;20.81;63.11
38880;BME280;25887;30.194;-97.880;2023-04-27T08:51:21;97950.78;;;20.81;62.97
38880;BME280;25887;30.194;-97.880;2023-04-27T08:53:55;97942.03;;;20.82;63.02
38880;BME280;25887;30.194;-97.880;2023-04-27T08:56:26;97936.69;;;20.85;63.03
38880;BME280;25887;30.194;-97.880;2023-04-27T08:58:57;97946.97;;;20.89;63.06
38880;BME280;25887;30.194;-97.880;2023-04-27T09:01:24;97925.16;;;20.90;63.01
38880;BME280;25887;30.194;-97.880;2023-04-27T09:04:00;97913.78;;;20.91;63.07
38880;BME280;25887;30.194;-97.880;2023-04-27T09:06:31;97926.91;;;20.89;63.04
38880;BME280;25887;30.194;-97.880;2023-04-27T09:08:57;97942.75;;;20.86;63.03
38880;BME280;25887;30.194;-97.880;2023-04-27T09:11:31;97949.75;;;20.85;63.11
38880;BME280;25887;30.194;-97.880;2023-04-27T09:14:13;97941.34;;;20.79;63.12
38880;BME280;25887;30.194;-97.880;2023-04-27T09:16:41;97936.34;;;20.74;63.09
38880;BME280;25887;30.194;-97.880;2023-04-27T09:19:07;97943.50;;;20.71;63.15
38880;BME280;25887;30.194;-97.880;2023-04-27T09:22:10;97965.25;;;20.70;63.03
38880;BME280;25887;30.194;-97.880;2023-04-27T09:28:13;98006.53;;;20.62;63.07
38880;BME280;25887;30.194;-97.880;2023-04-27T09:30:39;98018.97;;;20.56;63.27
38880;BME280;25887;30.194;-97.880;2023-04-27T09:33:06;98025.16;;;20.54;63.19
38880;BME280;25887;30.194;-97.880;2023-04-27T09:35:32;98022.63;;;20.52;63.20
38880;BME280;25887;30.194;-97.880;2023-04-27T09:37:59;98015.72;;;20.51;63.19
38880;BME280;25887;30.194;-97.880;2023-04-27T09:40:29;98011.44;;;20.50;63.23
38880;BME280;25887;30.194;-97.880;2023-04-27T09:42:58;98007.13;;;20.49;63.01
38880;BME280;25887;30.194;-97.880;2023-04-27T09:45:26;97999.41;;;20.46;63.16
38880;BME280;25887;30.194;-97.880;2023-04-27T09:47:52;98003.75;;;20.47;63.18
38880;BME280;25887;30.194;-97.880;2023-04-27T09:50:19;98001.19;;;20.46;62.99
38880;BME280;25887;30.194;-97.880;2023-04-27T09:52:46;98003.88;;;20.44;63.08
38880;BME280;25887;30.194;-97.880;2023-04-27T09:55:23;98001.50;;;20.38;63.25
38880;BME280;25887;30.194;-97.880;2023-04-27T09:57:52;98005.25;;;20.33;63.25
38880;BME280;25887;30.194;-97.880;2023-04-27T10:03:21;97992.56;;;20.25;63.38
38880;BME280;25887;30.194;-97.880;2023-04-27T10:08:37;98007.75;;;20.15;63.34
38880;BME280;25887;30.194;-97.880;2023-04-27T10:11:16;98020.88;;;20.14;63.29
38880;BME280;25887;30.194;-97.880;2023-04-27T10:13:53;98021.00;;;20.11;63.28
38880;BME280;25887;30.194;-97.880;2023-04-27T10:16:20;98023.69;;;20.09;63.40
38880;BME280;25887;30.194;-97.880;2023-04-27T10:18:52;98031.53;;;20.09;63.32
38880;BME280;25887;30.194;-97.880;2023-04-27T10:21:55;98032.38;;;20.10;63.29
38880;BME280;25887;30.194;-97.880;2023-04-27T10:24:36;98033.28;;;20.09;63.18
38880;BME280;25887;30.194;-97.880;2023-04-27T10:27:04;98045.53;;;20.07;63.38
38880;BME280;25887;30.194;-97.880;2023-04-27T10:32:24;98045.59;;;20.05;63.50
38880;BME280;25887;30.194;-97.880;2023-04-27T10:35:10;98054.91;;;20.11;63.25
38880;BME280;25887;30.194;-97.880;2023-04-27T10:37:41;98059.38;;;20.09;63.28
38880;BME280;25887;30.194;-97.880;2023-04-27T10:40:09;98063.72;;;20.08;63.32
38880;BME280;25887;30.194;-97.880;2023-04-27T10:42:39;98068.16;;;20.06;63.35
38880;BME280;25887;30.194;-97.880;2023-04-27T10:45:26;98069.78;;;20.09;63.30
38880;BME280;25887;30.194;-97.880;2023-04-27T10:47:57;98065.69;;;20.03;63.31
38880;BME280;25887;30.194;-97.880;2023-04-27T10:50:24;98063.41;;;19.95;63.41
38880;BME280;25887;30.194;-97.880;2023-04-27T10:52:51;98062.63;;;19.93;63.19
38880;BME280;25887;30.194;-97.880;2023-04-27T10:55:19;98057.47;;;19.92;63.51
38880;BME280;25887;30.194;-97.880;2023-04-27T10:57:50;98061.97;;;19.88;63.52
38880;BME280;25887;30.194;-97.880;2023-04-27T11:00:24;98061.06;;;19.89;63.42
38880;BME280;25887;30.194;-97.880;2023-04-27T11:02:53;98050.78;;;19.86;63.47
38880;BME280;25887;30.194;-97.880;2023-04-27T11:05:22;98050.84;;;19.85;63.71
38880;BME280;25887;30.194;-97.880;2023-04-27T11:07:51;98060.38;;;19.84;63.23
38880;BME280;25887;30.194;-97.880;2023-04-27T11:10:18;98058.69;;;19.83;63.43
38880;BME280;25887;30.194;-97.880;2023-04-27T11:12:45;98056.16;;;19.82;63.62
38880;BME280;25887;30.194;-97.880;2023-04-27T11:15:26;98063.06;;;19.83;63.41
38880;BME280;25887;30.194;-97.880;2023-04-27T11:18:03;98051.94;;;19.79;63.49
38880;BME280;25887;30.194;-97.880;2023-04-27T11:20:30;98052.13;;;19.74;63.48
38880;BME280;25887;30.194;-97.880;2023-04-27T11:22:56;98046.97;;;19.73;63.65
38880;BME280;25887;30.194;-97.880;2023-04-27T11:25:28;98052.19;;;19.73;64.01
38880;BME280;25887;30.194;-97.880;2023-04-27T11:27:55;98041.06;;;19.69;63.67
38880;BME280;25887;30.194;-97.880;2023-04-27T11:30:22;98057.66;;;19.67;63.79
38880;BME280;25887;30.194;-97.880;2023-04-27T11:32:49;98048.91;;;19.68;63.82
38880;BME280;25887;30.194;-97.880;2023-04-27T11:35:17;98045.53;;;19.66;63.89
38880;BME280;25887;30.194;-97.880;2023-04-27T11:37:43;98051.59;;;19.66;63.84
38880;BME280;25887;30.194;-97.880;2023-04-27T11:40:12;98048.22;;;19.64;63.73
38880;BME280;25887;30.194;-97.880;2023-04-27T11:42:39;98058.56;;;19.66;64.10
38880;BME280;25887;30.194;-97.880;2023-04-27T11:45:10;98059.47;;;19.65;63.87
38880;BME280;25887;30.194;-97.880;2023-04-27T11:47:37;98069.84;;;19.66;63.66
38880;BME280;25887;30.194;-97.880;2023-04-27T11:50:06;98064.69;;;19.65;63.87
38880;BME280;25887;30.194;-97.880;2023-04-27T11:52:34;98080.34;;;19.65;63.93
38880;BME280;25887;30.194;-97.880;2023-04-27T11:55:02;98078.72;;;19.62;63.91
38880;BME280;25887;30.194;-97.880;2023-04-27T11:57:40;98087.44;;;19.61;63.81
38880;BME280;25887;30.194;-97.880;2023-04-27T12:00:07;98084.88;;;19.60;63.94
38880;BME280;25887;30.194;-97.880;2023-04-27T12:02:36;98090.94;;;19.60;63.97
38880;BME280;25887;30.194;-97.880;2023-04-27T12:05:03;98102.19;;;19.61;63.98
38880;BME280;25887;30.194;-97.880;2023-04-27T12:07:30;98095.38;;;19.58;64.09
38880;BME280;25887;30.194;-97.880;2023-04-27T12:09:57;98103.13;;;19.60;64.10
38880;BME280;25887;30.194;-97.880;2023-04-27T12:12:23;98108.34;;;19.60;64.13
38880;BME280;25887;30.194;-97.880;2023-04-27T12:14:50;98110.03;;;19.61;63.99
38880;BME280;25887;30.194;-97.880;2023-04-27T12:17:17;98106.56;;;19.60;64.02
38880;BME280;25887;30.194;-97.880;2023-04-27T12:19:43;98113.44;;;19.63;64.05
38880;BME280;25887;30.194;-97.880;2023-04-27T12:22:11;98113.38;;;19.64;63.97
38880;BME280;25887;30.194;-97.880;2023-04-27T12:24:37;98116.88;;;19.63;64.01
38880;BME280;25887;30.194;-97.880;2023-04-27T12:27:03;98125.50;;;19.65;64.05
38880;BME280;25887;30.194;-97.880;2023-04-27T12:29:29;98121.91;;;19.68;64.08
38880;BME280;25887;30.194;-97.880;2023-04-27T12:31:59;98121.00;;;19.69;64.18
38880;BME280;25887;30.194;-97.880;2023-04-27T12:34:31;98123.47;;;19.72;64.12
38880;BME280;25887;30.194;-97.880;2023-04-27T12:36:58;98119.13;;;19.72;64.05
38880;BME280;25887;30.194;-97.880;2023-04-27T12:39:59;98130.25;;;19.76;63.94
38880;BME280;25887;30.194;-97.880;2023-04-27T12:42:54;98126.88;;;19.74;63.88
38880;BME280;25887;30.194;-97.880;2023-04-27T12:45:20;98131.09;;;19.76;64.01
38880;BME280;25887;30.194;-97.880;2023-04-27T12:47:46;98130.16;;;19.79;64.13
38880;BME280;25887;30.194;-97.880;2023-04-27T12:50:14;98136.13;;;19.81;64.05
38880;BME280;25887;30.194;-97.880;2023-04-27T12:52:42;98133.47;;;19.83;64.11
38880;BME280;25887;30.194;-97.880;2023-04-27T12:55:09;98137.75;;;19.84;63.90
38880;BME280;25887;30.194;-97.880;2023-04-27T12:57:35;98140.38;;;19.84;63.94
38880;BME280;25887;30.194;-97.880;2023-04-27T13:00:01;98149.94;;;19.83;63.96
38880;BME280;25887;30.194;-97.880;2023-04-27T13:02:30;98144.72;;;19.83;64.05